Airfield :







YOU CAN JOIN US ON...

 
LOGIN :

Register | Disclaimer

   EN    FR    IT 

 









Legend :    VFR   Marginal VFR   IFR   Intensive IFR   Very Intensive IFR
Visi :
Ceiling :
>= 8 km
>= 3000ft
5 to 8 km
1000 to 3000 ft
1500m to 5 km
500 to 1000 ft
800 to 1500m
200 to 500 ft
< 800m
< 200 ft
Symbols :   Thunderstorms  Fog  Heavy snow  Heavy precipitations  Wind > 20 kt







- Airport Elevation : 11 ft


KGHG - Marshfield Municipal George Harlow Field

CURRENT METAR :
  • 160855Z AUTO 23008G13KT 8SM -RA FEW002 SCT028 BKN090 18/17 A2991 RMK AO2 P0001

EXPIRED METARs :
  • 160835Z AUTO 23008G13KT 190V250 10SM CLR 19/16 A2990 RMK AO2
  • 160815Z AUTO 23008G17KT 10SM -RA FEW002 FEW047 19/15 A2990 RMK AO2
  • 160755Z AUTO 23008G17KT 10SM CLR 20/14 A2990 RMK AO2
  • 160735Z AUTO 23010G22KT 10SM CLR 20/14 A2988 RMK AO2
  • 160715Z AUTO 22008KT CLR 20/14 A2989 RMK AO2
  • 160655Z AUTO 23009KT 10SM CLR 20/14 A2989 RMK AO2
  • 160635Z AUTO 22009G16KT 10SM FEW120 20/14 A2988 RMK AO2
  • 160615Z AUTO 22008G20KT 190V250 10SM FEW120 20/13 A2988 RMK AO2

TAF N/A
KZBW FIR / North America



MET'MAP, your aeronautical weather chart ! - Copyright ORBIFLY December 2007 - Disclaimer

ORBIFLY MET'MAP TEAM :

Programming & Development : Alexandra Zaïnal
Concept & Development : Baudouin d'Aumeries
Co-Development & Prog : Marc-Olivier Méhu
Technical & hardware support : Manuel Goepfert

Contact : metmap@orbifly.com




SOURCES & CREDITS :

   NOAA